sensor_id;sensor_type;location;lat;lon;timestamp;temperature;humidity
83500;DHT22;73433;50.908;13.746;2023-12-29T00:00:09;6.10;80.20
83500;DHT22;73433;50.908;13.746;2023-12-29T00:02:37;6.10;80.20
83500;DHT22;73433;50.908;13.746;2023-12-29T00:05:05;6.00;80.10
83500;DHT22;73433;50.908;13.746;2023-12-29T00:07:33;5.90;80.20
83500;DHT22;73433;50.908;13.746;2023-12-29T00:10:01;5.90;80.30
83500;DHT22;73433;50.908;13.746;2023-12-29T00:12:28;5.80;80.50
83500;DHT22;73433;50.908;13.746;2023-12-29T00:14:55;5.80;80.80
83500;DHT22;73433;50.908;13.746;2023-12-29T00:17:22;5.80;81.00
83500;DHT22;73433;50.908;13.746;2023-12-29T00:19:50;5.70;81.10
83500;DHT22;73433;50.908;13.746;2023-12-29T00:22:17;5.70;81.20
83500;DHT22;73433;50.908;13.746;2023-12-29T00:24:45;5.70;81.00
83500;DHT22;73433;50.908;13.746;2023-12-29T00:27:13;5.70;81.20
83500;DHT22;73433;50.908;13.746;2023-12-29T00:29:41;5.60;81.30
83500;DHT22;73433;50.908;13.746;2023-12-29T00:32:08;5.60;81.60
83500;DHT22;73433;50.908;13.746;2023-12-29T00:34:36;5.70;81.70
83500;DHT22;73433;50.908;13.746;2023-12-29T00:37:05;5.70;81.90
83500;DHT22;73433;50.908;13.746;2023-12-29T00:39:33;5.80;82.20
83500;DHT22;73433;50.908;13.746;2023-12-29T00:42:06;5.90;82.10
83500;DHT22;73433;50.908;13.746;2023-12-29T00:44:34;6.10;82.80
83500;DHT22;73433;50.908;13.746;2023-12-29T00:47:02;6.20;81.70
83500;DHT22;73433;50.908;13.746;2023-12-29T00:49:29;6.40;81.40
83500;DHT22;73433;50.908;13.746;2023-12-29T00:51:57;6.60;80.80
83500;DHT22;73433;50.908;13.746;2023-12-29T00:54:24;6.80;79.90
83500;DHT22;73433;50.908;13.746;2023-12-29T00:56:56;6.90;79.40
83500;DHT22;73433;50.908;13.746;2023-12-29T00:59:23;7.00;78.90
83500;DHT22;73433;50.908;13.746;2023-12-29T01:01:50;7.00;78.50
83500;DHT22;73433;50.908;13.746;2023-12-29T01:04:18;7.10;78.20
83500;DHT22;73433;50.908;13.746;2023-12-29T01:06:45;7.00;77.90
83500;DHT22;73433;50.908;13.746;2023-12-29T01:09:12;7.10;77.90
83500;DHT22;73433;50.908;13.746;2023-12-29T01:11:40;7.10;77.80
83500;DHT22;73433;50.908;13.746;2023-12-29T01:14:07;7.10;77.70
83500;DHT22;73433;50.908;13.746;2023-12-29T01:16:34;7.10;77.50
83500;DHT22;73433;50.908;13.746;2023-12-29T01:19:02;7.10;77.40
83500;DHT22;73433;50.908;13.746;2023-12-29T01:21:29;7.10;77.30
83500;DHT22;73433;50.908;13.746;2023-12-29T01:24:01;7.10;77.20
83500;DHT22;73433;50.908;13.746;2023-12-29T01:26:31;7.20;77.10
83500;DHT22;73433;50.908;13.746;2023-12-29T01:28:58;7.20;76.70
83500;DHT22;73433;50.908;13.746;2023-12-29T01:31:29;7.30;76.60
83500;DHT22;73433;50.908;13.746;2023-12-29T01:33:58;7.30;76.30
83500;DHT22;73433;50.908;13.746;2023-12-29T01:36:25;7.30;76.20
83500;DHT22;73433;50.908;13.746;2023-12-29T01:38:53;7.30;75.90
83500;DHT22;73433;50.908;13.746;2023-12-29T01:41:20;7.40;75.70
83500;DHT22;73433;50.908;13.746;2023-12-29T01:46:33;7.40;75.70
83500;DHT22;73433;50.908;13.746;2023-12-29T01:49:01;7.40;75.40
83500;DHT22;73433;50.908;13.746;2023-12-29T01:51:29;7.40;75.20
83500;DHT22;73433;50.908;13.746;2023-12-29T01:53:58;7.40;75.40
83500;DHT22;73433;50.908;13.746;2023-12-29T01:56:26;7.30;75.60
83500;DHT22;73433;50.908;13.746;2023-12-29T01:58:55;7.30;75.70
83500;DHT22;73433;50.908;13.746;2023-12-29T02:01:35;7.30;75.80
83500;DHT22;73433;50.908;13.746;2023-12-29T02:04:03;7.30;75.80
83500;DHT22;73433;50.908;13.746;2023-12-29T02:06:32;7.30;76.10
83500;DHT22;73433;50.908;13.746;2023-12-29T02:09:02;7.40;76.20
83500;DHT22;73433;50.908;13.746;2023-12-29T02:11:31;7.40;76.20
83500;DHT22;73433;50.908;13.746;2023-12-29T02:13:59;7.40;76.10
83500;DHT22;73433;50.908;13.746;2023-12-29T02:19:41;7.50;76.10
83500;DHT22;73433;50.908;13.746;2023-12-29T02:22:11;7.50;76.00
83500;DHT22;73433;50.908;13.746;2023-12-29T02:24:39;7.50;76.00
83500;DHT22;73433;50.908;13.746;2023-12-29T02:30:38;7.40;75.80
83500;DHT22;73433;50.908;13.746;2023-12-29T02:33:09;7.40;75.80
83500;DHT22;73433;50.908;13.746;2023-12-29T02:35:43;7.40;75.80
83500;DHT22;73433;50.908;13.746;2023-12-29T02:38:11;7.40;75.70
83500;DHT22;73433;50.908;13.746;2023-12-29T02:40:38;7.40;75.60
83500;DHT22;73433;50.908;13.746;2023-12-29T02:43:07;7.40;75.50
83500;DHT22;73433;50.908;13.746;2023-12-29T02:45:35;7.40;75.40
83500;DHT22;73433;50.908;13.746;2023-12-29T02:48:02;7.40;75.30
83500;DHT22;73433;50.908;13.746;2023-12-29T02:50:30;7.30;75.30
83500;DHT22;73433;50.908;13.746;2023-12-29T02:52:57;7.30;75.20
83500;DHT22;73433;50.908;13.746;2023-12-29T02:55:25;7.30;75.30
83500;DHT22;73433;50.908;13.746;2023-12-29T02:57:52;7.30;75.40
83500;DHT22;73433;50.908;13.746;2023-12-29T03:00:19;7.30;75.50
83500;DHT22;73433;50.908;13.746;2023-12-29T03:02:46;7.30;75.60
83500;DHT22;73433;50.908;13.746;2023-12-29T03:05:14;7.30;76.00
83500;DHT22;73433;50.908;13.746;2023-12-29T03:07:41;7.30;76.00
83500;DHT22;73433;50.908;13.746;2023-12-29T03:10:09;7.30;76.00
83500;DHT22;73433;50.908;13.746;2023-12-29T03:12:36;7.30;76.00
83500;DHT22;73433;50.908;13.746;2023-12-29T03:15:04;7.30;76.70
83500;DHT22;73433;50.908;13.746;2023-12-29T03:17:33;7.30;75.90
83500;DHT22;73433;50.908;13.746;2023-12-29T03:20:02;7.30;76.00
83500;DHT22;73433;50.908;13.746;2023-12-29T03:22:30;7.30;76.10
83500;DHT22;73433;50.908;13.746;2023-12-29T03:24:57;7.30;76.10
83500;DHT22;73433;50.908;13.746;2023-12-29T03:27:24;7.20;76.00
83500;DHT22;73433;50.908;13.746;2023-12-29T03:29:51;7.20;76.30
83500;DHT22;73433;50.908;13.746;2023-12-29T03:32:19;7.20;76.40
83500;DHT22;73433;50.908;13.746;2023-12-29T03:34:46;7.20;76.50
83500;DHT22;73433;50.908;13.746;2023-12-29T03:37:13;7.20;76.90
83500;DHT22;73433;50.908;13.746;2023-12-29T03:39:41;7.20;77.00
83500;DHT22;73433;50.908;13.746;2023-12-29T03:42:08;7.20;77.00
83500;DHT22;73433;50.908;13.746;2023-12-29T03:44:35;7.20;77.10
83500;DHT22;73433;50.908;13.746;2023-12-29T03:47:02;7.20;77.10
83500;DHT22;73433;50.908;13.746;2023-12-29T03:49:30;7.20;77.20
83500;DHT22;73433;50.908;13.746;2023-12-29T03:51:57;7.20;77.20
83500;DHT22;73433;50.908;13.746;2023-12-29T03:54:24;7.20;77.40
83500;DHT22;73433;50.908;13.746;2023-12-29T03:56:52;7.20;77.20
83500;DHT22;73433;50.908;13.746;2023-12-29T03:59:19;7.20;77.30
83500;DHT22;73433;50.908;13.746;2023-12-29T04:01:46;7.30;77.20
83500;DHT22;73433;50.908;13.746;2023-12-29T04:04:14;7.40;77.10
83500;DHT22;73433;50.908;13.746;2023-12-29T04:06:41;7.40;76.80
83500;DHT22;73433;50.908;13.746;2023-12-29T04:09:08;7.40;76.60
83500;DHT22;73433;50.908;13.746;2023-12-29T04:11:35;7.50;76.70
83500;DHT22;73433;50.908;13.746;2023-12-29T04:14:03;7.50;76.40
83500;DHT22;73433;50.908;13.746;2023-12-29T04:16:30;7.50;76.30
83500;DHT22;73433;50.908;13.746;2023-12-29T04:18:57;7.50;76.10
83500;DHT22;73433;50.908;13.746;2023-12-29T04:21:24;7.60;76.00
83500;DHT22;73433;50.908;13.746;2023-12-29T04:23:52;7.60;75.90
83500;DHT22;73433;50.908;13.746;2023-12-29T04:26:19;7.60;75.80
83500;DHT22;73433;50.908;13.746;2023-12-29T04:28:46;7.60;75.60
83500;DHT22;73433;50.908;13.746;2023-12-29T04:31:13;7.60;75.40
83500;DHT22;73433;50.908;13.746;2023-12-29T04:33:41;7.60;75.10
83500;DHT22;73433;50.908;13.746;2023-12-29T04:36:08;7.70;74.90
83500;DHT22;73433;50.908;13.746;2023-12-29T04:38:35;7.70;74.70
83500;DHT22;73433;50.908;13.746;2023-12-29T04:41:03;7.80;74.40
83500;DHT22;73433;50.908;13.746;2023-12-29T04:43:30;7.80;74.20
83500;DHT22;73433;50.908;13.746;2023-12-29T04:45:57;7.80;74.10
83500;DHT22;73433;50.908;13.746;2023-12-29T04:48:25;7.80;74.20
83500;DHT22;73433;50.908;13.746;2023-12-29T04:50:52;7.80;74.20
83500;DHT22;73433;50.908;13.746;2023-12-29T04:53:19;7.80;74.20
83500;DHT22;73433;50.908;13.746;2023-12-29T04:55:46;7.80;74.10
83500;DHT22;73433;50.908;13.746;2023-12-29T04:58:14;7.80;74.10
83500;DHT22;73433;50.908;13.746;2023-12-29T05:00:41;7.80;74.10
83500;DHT22;73433;50.908;13.746;2023-12-29T05:03:08;7.90;74.20
83500;DHT22;73433;50.908;13.746;2023-12-29T05:05:36;7.90;74.10
83500;DHT22;73433;50.908;13.746;2023-12-29T05:08:03;7.90;74.10
83500;DHT22;73433;50.908;13.746;2023-12-29T05:10:31;7.90;74.20
83500;DHT22;73433;50.908;13.746;2023-12-29T05:13:01;7.80;74.20
83500;DHT22;73433;50.908;13.746;2023-12-29T05:15:29;7.80;74.20
83500;DHT22;73433;50.908;13.746;2023-12-29T05:17:56;7.80;74.50
83500;DHT22;73433;50.908;13.746;2023-12-29T05:20:24;7.70;74.70
83500;DHT22;73433;50.908;13.746;2023-12-29T05:22:51;7.70;74.90
83500;DHT22;73433;50.908;13.746;2023-12-29T05:25:18;7.70;75.20
83500;DHT22;73433;50.908;13.746;2023-12-29T05:27:49;7.60;75.20
83500;DHT22;73433;50.908;13.746;2023-12-29T05:30:16;7.60;75.30
83500;DHT22;73433;50.908;13.746;2023-12-29T05:32:43;7.60;75.50
83500;DHT22;73433;50.908;13.746;2023-12-29T05:35:11;7.60;75.50
83500;DHT22;73433;50.908;13.746;2023-12-29T05:37:39;7.60;75.50
83500;DHT22;73433;50.908;13.746;2023-12-29T05:40:06;7.60;75.50
83500;DHT22;73433;50.908;13.746;2023-12-29T05:42:34;7.70;75.40
83500;DHT22;73433;50.908;13.746;2023-12-29T05:45:01;7.70;75.20
83500;DHT22;73433;50.908;13.746;2023-12-29T05:47:29;7.70;75.00
83500;DHT22;73433;50.908;13.746;2023-12-29T05:49:57;7.70;74.80
83500;DHT22;73433;50.908;13.746;2023-12-29T05:52:24;7.70;74.50
83500;DHT22;73433;50.908;13.746;2023-12-29T05:54:52;7.80;74.20
83500;DHT22;73433;50.908;13.746;2023-12-29T05:57:19;7.80;74.00
83500;DHT22;73433;50.908;13.746;2023-12-29T05:59:46;7.70;73.90
83500;DHT22;73433;50.908;13.746;2023-12-29T06:02:13;7.70;73.80
83500;DHT22;73433;50.908;13.746;2023-12-29T06:04:41;7.70;73.80
83500;DHT22;73433;50.908;13.746;2023-12-29T06:07:08;7.80;73.50
83500;DHT22;73433;50.908;13.746;2023-12-29T06:09:36;7.80;73.00
83500;DHT22;73433;50.908;13.746;2023-12-29T06:12:04;7.90;72.70
83500;DHT22;73433;50.908;13.746;2023-12-29T06:14:31;7.90;72.40
83500;DHT22;73433;50.908;13.746;2023-12-29T06:16:58;7.90;72.00
83500;DHT22;73433;50.908;13.746;2023-12-29T06:19:25;7.90;71.90
83500;DHT22;73433;50.908;13.746;2023-12-29T06:21:55;7.90;71.70
83500;DHT22;73433;50.908;13.746;2023-12-29T06:24:23;7.90;71.60
83500;DHT22;73433;50.908;13.746;2023-12-29T06:26:50;7.80;71.60
83500;DHT22;73433;50.908;13.746;2023-12-29T06:29:17;7.80;71.60
83500;DHT22;73433;50.908;13.746;2023-12-29T06:31:45;7.80;71.50
83500;DHT22;73433;50.908;13.746;2023-12-29T06:34:12;7.70;71.60
83500;DHT22;73433;50.908;13.746;2023-12-29T06:36:40;7.70;71.80
83500;DHT22;73433;50.908;13.746;2023-12-29T06:39:07;7.70;71.70
83500;DHT22;73433;50.908;13.746;2023-12-29T06:41:34;7.70;71.70
83500;DHT22;73433;50.908;13.746;2023-12-29T06:44:01;7.60;71.70
83500;DHT22;73433;50.908;13.746;2023-12-29T06:46:29;7.70;71.80
83500;DHT22;73433;50.908;13.746;2023-12-29T06:48:56;7.70;71.70
83500;DHT22;73433;50.908;13.746;2023-12-29T06:51:23;7.70;71.70
83500;DHT22;73433;50.908;13.746;2023-12-29T06:53:51;7.70;71.50
83500;DHT22;73433;50.908;13.746;2023-12-29T06:56:18;7.70;71.60
83500;DHT22;73433;50.908;13.746;2023-12-29T06:58:46;7.80;71.40
83500;DHT22;73433;50.908;13.746;2023-12-29T07:01:13;7.80;71.50
83500;DHT22;73433;50.908;13.746;2023-12-29T07:03:41;7.80;71.50
83500;DHT22;73433;50.908;13.746;2023-12-29T07:06:10;7.80;71.60
83500;DHT22;73433;50.908;13.746;2023-12-29T07:08:37;7.70;71.60
83500;DHT22;73433;50.908;13.746;2023-12-29T07:11:09;7.70;71.60
83500;DHT22;73433;50.908;13.746;2023-12-29T07:13:36;7.70;71.70
83500;DHT22;73433;50.908;13.746;2023-12-29T07:16:04;7.70;71.80
83500;DHT22;73433;50.908;13.746;2023-12-29T07:18:32;7.80;71.70
83500;DHT22;73433;50.908;13.746;2023-12-29T07:21:00;7.80;71.60
83500;DHT22;73433;50.908;13.746;2023-12-29T07:23:27;7.80;71.60
83500;DHT22;73433;50.908;13.746;2023-12-29T07:25:54;7.80;71.40
83500;DHT22;73433;50.908;13.746;2023-12-29T07:28:21;7.80;71.40
83500;DHT22;73433;50.908;13.746;2023-12-29T07:30:49;7.90;71.40
83500;DHT22;73433;50.908;13.746;2023-12-29T07:33:16;7.90;71.40
83500;DHT22;73433;50.908;13.746;2023-12-29T07:35:43;7.80;71.30
83500;DHT22;73433;50.908;13.746;2023-12-29T07:38:11;7.80;71.40
83500;DHT22;73433;50.908;13.746;2023-12-29T07:40:38;7.90;71.50
83500;DHT22;73433;50.908;13.746;2023-12-29T07:43:06;7.90;71.30
83500;DHT22;73433;50.908;13.746;2023-12-29T07:45:33;8.00;71.30
83500;DHT22;73433;50.908;13.746;2023-12-29T07:48:02;8.00;71.40
83500;DHT22;73433;50.908;13.746;2023-12-29T07:50:32;8.00;71.40
83500;DHT22;73433;50.908;13.746;2023-12-29T07:53:00;8.00;71.40
83500;DHT22;73433;50.908;13.746;2023-12-29T07:55:30;8.00;71.50
83500;DHT22;73433;50.908;13.746;2023-12-29T07:57:57;8.00;71.60
83500;DHT22;73433;50.908;13.746;2023-12-29T08:00:25;8.00;71.60
83500;DHT22;73433;50.908;13.746;2023-12-29T08:02:53;8.10;71.80
83500;DHT22;73433;50.908;13.746;2023-12-29T08:05:20;8.20;71.70
83500;DHT22;73433;50.908;13.746;2023-12-29T08:07:48;8.20;71.80
83500;DHT22;73433;50.908;13.746;2023-12-29T08:10:15;8.30;71.70
83500;DHT22;73433;50.908;13.746;2023-12-29T08:12:43;8.40;71.60
83500;DHT22;73433;50.908;13.746;2023-12-29T08:15:10;8.60;71.10
83500;DHT22;73433;50.908;13.746;2023-12-29T08:17:38;8.70;70.90
83500;DHT22;73433;50.908;13.746;2023-12-29T08:20:06;8.80;70.30
83500;DHT22;73433;50.908;13.746;2023-12-29T08:22:34;8.80;70.00
83500;DHT22;73433;50.908;13.746;2023-12-29T08:25:01;8.80;69.80
83500;DHT22;73433;50.908;13.746;2023-12-29T08:27:28;8.90;69.60
83500;DHT22;73433;50.908;13.746;2023-12-29T08:29:56;8.90;69.60
83500;DHT22;73433;50.908;13.746;2023-12-29T08:32:23;9.10;69.60
83500;DHT22;73433;50.908;13.746;2023-12-29T08:34:50;9.20;69.20
83500;DHT22;73433;50.908;13.746;2023-12-29T08:37:17;9.20;68.60
83500;DHT22;73433;50.908;13.746;2023-12-29T08:39:47;9.30;68.50
83500;DHT22;73433;50.908;13.746;2023-12-29T08:42:16;9.40;68.20
83500;DHT22;73433;50.908;13.746;2023-12-29T08:44:43;9.50;68.20
83500;DHT22;73433;50.908;13.746;2023-12-29T08:47:10;9.60;67.80
83500;DHT22;73433;50.908;13.746;2023-12-29T08:49:38;9.60;67.60
83500;DHT22;73433;50.908;13.746;2023-12-29T08:52:05;9.70;67.60
83500;DHT22;73433;50.908;13.746;2023-12-29T08:54:33;9.70;67.50
83500;DHT22;73433;50.908;13.746;2023-12-29T08:57:00;9.70;67.30
83500;DHT22;73433;50.908;13.746;2023-12-29T08:59:28;9.70;67.20
83500;DHT22;73433;50.908;13.746;2023-12-29T09:01:55;9.70;67.30
83500;DHT22;73433;50.908;13.746;2023-12-29T09:04:23;9.70;67.10
83500;DHT22;73433;50.908;13.746;2023-12-29T09:06:50;9.80;67.20
83500;DHT22;73433;50.908;13.746;2023-12-29T09:09:18;9.80;67.40
83500;DHT22;73433;50.908;13.746;2023-12-29T09:11:45;9.80;67.50
83500;DHT22;73433;50.908;13.746;2023-12-29T09:14:13;9.90;67.50
83500;DHT22;73433;50.908;13.746;2023-12-29T09:16:41;9.90;67.50
83500;DHT22;73433;50.908;13.746;2023-12-29T09:19:10;10.00;67.20
83500;DHT22;73433;50.908;13.746;2023-12-29T09:21:41;10.00;67.10
83500;DHT22;73433;50.908;13.746;2023-12-29T09:24:08;10.00;67.10
83500;DHT22;73433;50.908;13.746;2023-12-29T09:26:35;10.10;66.70
83500;DHT22;73433;50.908;13.746;2023-12-29T09:29:03;10.10;66.80
83500;DHT22;73433;50.908;13.746;2023-12-29T09:31:30;10.20;66.80
83500;DHT22;73433;50.908;13.746;2023-12-29T09:33:57;10.20;66.70
83500;DHT22;73433;50.908;13.746;2023-12-29T09:36:24;10.30;65.90
83500;DHT22;73433;50.908;13.746;2023-12-29T09:38:52;10.40;65.80
83500;DHT22;73433;50.908;13.746;2023-12-29T09:41:20;10.40;65.50
83500;DHT22;73433;50.908;13.746;2023-12-29T09:43:51;10.50;65.50
83500;DHT22;73433;50.908;13.746;2023-12-29T09:46:19;10.60;65.10
83500;DHT22;73433;50.908;13.746;2023-12-29T09:48:52;10.70;64.70
83500;DHT22;73433;50.908;13.746;2023-12-29T09:51:20;10.70;64.70
83500;DHT22;73433;50.908;13.746;2023-12-29T09:53:51;10.70;64.60
83500;DHT22;73433;50.908;13.746;2023-12-29T09:56:19;10.80;64.30
83500;DHT22;73433;50.908;13.746;2023-12-29T09:58:48;10.70;63.50
83500;DHT22;73433;50.908;13.746;2023-12-29T10:01:17;10.70;64.10
83500;DHT22;73433;50.908;13.746;2023-12-29T10:03:47;10.70;65.10
83500;DHT22;73433;50.908;13.746;2023-12-29T10:06:20;10.80;64.20
83500;DHT22;73433;50.908;13.746;2023-12-29T10:08:49;10.80;64.10
83500;DHT22;73433;50.908;13.746;2023-12-29T10:11:24;11.00;63.90
83500;DHT22;73433;50.908;13.746;2023-12-29T10:13:54;11.20;64.20
83500;DHT22;73433;50.908;13.746;2023-12-29T10:16:57;11.40;63.40
83500;DHT22;73433;50.908;13.746;2023-12-29T10:19:40;11.40;62.60
83500;DHT22;73433;50.908;13.746;2023-12-29T10:22:21;11.40;62.30
83500;DHT22;73433;50.908;13.746;2023-12-29T10:24:51;11.40;62.20
83500;DHT22;73433;50.908;13.746;2023-12-29T10:27:19;11.30;62.80
83500;DHT22;73433;50.908;13.746;2023-12-29T10:29:46;11.20;62.30
83500;DHT22;73433;50.908;13.746;2023-12-29T10:32:14;11.10;62.80
83500;DHT22;73433;50.908;13.746;2023-12-29T10:34:41;11.10;63.00
83500;DHT22;73433;50.908;13.746;2023-12-29T10:37:09;11.00;63.00
83500;DHT22;73433;50.908;13.746;2023-12-29T10:39:56;11.00;63.20
83500;DHT22;73433;50.908;13.746;2023-12-29T10:42:23;11.00;62.40
83500;DHT22;73433;50.908;13.746;2023-12-29T10:45:05;10.90;62.70
83500;DHT22;73433;50.908;13.746;2023-12-29T10:47:34;10.70;63.20
83500;DHT22;73433;50.908;13.746;2023-12-29T10:50:03;10.60;63.80
83500;DHT22;73433;50.908;13.746;2023-12-29T10:52:33;10.50;64.20
83500;DHT22;73433;50.908;13.746;2023-12-29T10:55:06;10.40;64.50
83500;DHT22;73433;50.908;13.746;2023-12-29T10:57:35;10.40;65.00
83500;DHT22;73433;50.908;13.746;2023-12-29T11:00:03;10.30;65.30
83500;DHT22;73433;50.908;13.746;2023-12-29T11:02:31;10.20;65.40
83500;DHT22;73433;50.908;13.746;2023-12-29T11:05:06;10.10;65.80
83500;DHT22;73433;50.908;13.746;2023-12-29T11:07:39;10.10;66.20
83500;DHT22;73433;50.908;13.746;2023-12-29T11:10:09;10.10;66.70
83500;DHT22;73433;50.908;13.746;2023-12-29T11:12:38;10.20;66.70
83500;DHT22;73433;50.908;13.746;2023-12-29T11:15:06;10.50;66.30
83500;DHT22;73433;50.908;13.746;2023-12-29T11:17:35;10.70;65.80
83500;DHT22;73433;50.908;13.746;2023-12-29T11:20:04;11.10;65.30
83500;DHT22;73433;50.908;13.746;2023-12-29T11:22:32;11.50;63.80
83500;DHT22;73433;50.908;13.746;2023-12-29T11:25:00;11.80;62.90
83500;DHT22;73433;50.908;13.746;2023-12-29T11:27:30;12.10;62.10
83500;DHT22;73433;50.908;13.746;2023-12-29T11:30:02;12.40;59.90
83500;DHT22;73433;50.908;13.746;2023-12-29T11:35:17;12.70;59.00
83500;DHT22;73433;50.908;13.746;2023-12-29T11:38:00;12.70;58.20
83500;DHT22;73433;50.908;13.746;2023-12-29T11:40:41;12.70;58.30
83500;DHT22;73433;50.908;13.746;2023-12-29T11:43:16;12.70;58.50
83500;DHT22;73433;50.908;13.746;2023-12-29T11:45:43;12.80;58.10
83500;DHT22;73433;50.908;13.746;2023-12-29T11:48:12;12.80;57.80
83500;DHT22;73433;50.908;13.746;2023-12-29T11:50:40;12.90;57.00
83500;DHT22;73433;50.908;13.746;2023-12-29T11:53:08;12.80;56.70
83500;DHT22;73433;50.908;13.746;2023-12-29T11:55:39;12.80;57.20
83500;DHT22;73433;50.908;13.746;2023-12-29T11:58:25;12.80;57.70
83500;DHT22;73433;50.908;13.746;2023-12-29T12:00:56;12.90;57.30
83500;DHT22;73433;50.908;13.746;2023-12-29T12:03:28;13.00;57.40
83500;DHT22;73433;50.908;13.746;2023-12-29T12:05:59;13.10;57.40
83500;DHT22;73433;50.908;13.746;2023-12-29T12:08:33;13.30;57.40
83500;DHT22;73433;50.908;13.746;2023-12-29T12:14:01;13.30;56.60
83500;DHT22;73433;50.908;13.746;2023-12-29T12:16:48;13.10;56.20
83500;DHT22;73433;50.908;13.746;2023-12-29T12:19:21;12.70;56.60
83500;DHT22;73433;50.908;13.746;2023-12-29T12:21:53;12.30;57.50
83500;DHT22;73433;50.908;13.746;2023-12-29T12:24:21;11.90;58.30
83500;DHT22;73433;50.908;13.746;2023-12-29T12:26:48;11.50;59.60
83500;DHT22;73433;50.908;13.746;2023-12-29T12:29:17;11.20;60.70
83500;DHT22;73433;50.908;13.746;2023-12-29T12:31:55;11.00;61.90
83500;DHT22;73433;50.908;13.746;2023-12-29T12:34:23;10.90;62.70
83500;DHT22;73433;50.908;13.746;2023-12-29T12:36:53;10.80;63.30
83500;DHT22;73433;50.908;13.746;2023-12-29T12:39:23;10.70;63.70
83500;DHT22;73433;50.908;13.746;2023-12-29T12:41:51;10.60;64.00
83500;DHT22;73433;50.908;13.746;2023-12-29T12:44:18;10.60;64.60
83500;DHT22;73433;50.908;13.746;2023-12-29T12:49:15;10.60;65.20
83500;DHT22;73433;50.908;13.746;2023-12-29T12:51:42;10.60;65.10
83500;DHT22;73433;50.908;13.746;2023-12-29T12:54:11;10.60;65.10
83500;DHT22;73433;50.908;13.746;2023-12-29T12:56:43;10.60;65.00
83500;DHT22;73433;50.908;13.746;2023-12-29T12:59:11;10.60;64.90
83500;DHT22;73433;50.908;13.746;2023-12-29T13:01:40;10.60;65.20
83500;DHT22;73433;50.908;13.746;2023-12-29T13:04:09;10.70;65.40
83500;DHT22;73433;50.908;13.746;2023-12-29T13:06:41;10.70;64.70
83500;DHT22;73433;50.908;13.746;2023-12-29T13:09:13;10.80;64.60
83500;DHT22;73433;50.908;13.746;2023-12-29T13:11:44;10.80;64.10
83500;DHT22;73433;50.908;13.746;2023-12-29T13:14:21;10.70;64.20
83500;DHT22;73433;50.908;13.746;2023-12-29T13:16:50;10.70;64.40
83500;DHT22;73433;50.908;13.746;2023-12-29T13:19:19;10.60;64.70
83500;DHT22;73433;50.908;13.746;2023-12-29T13:21:52;10.50;65.00
83500;DHT22;73433;50.908;13.746;2023-12-29T13:24:24;10.40;65.50
83500;DHT22;73433;50.908;13.746;2023-12-29T13:27:02;10.20;65.80
83500;DHT22;73433;50.908;13.746;2023-12-29T13:29:30;10.20;66.40
83500;DHT22;73433;50.908;13.746;2023-12-29T13:34:38;10.10;67.20
83500;DHT22;73433;50.908;13.746;2023-12-29T13:40:16;10.00;67.80
83500;DHT22;73433;50.908;13.746;2023-12-29T13:43:02;10.00;67.50
83500;DHT22;73433;50.908;13.746;2023-12-29T13:45:34;10.00;67.20
83500;DHT22;73433;50.908;13.746;2023-12-29T13:48:07;10.00;67.10
83500;DHT22;73433;50.908;13.746;2023-12-29T13:50:36;10.00;67.00
83500;DHT22;73433;50.908;13.746;2023-12-29T13:53:03;10.00;67.10
83500;DHT22;73433;50.908;13.746;2023-12-29T13:55:31;10.00;67.10
83500;DHT22;73433;50.908;13.746;2023-12-29T13:57:59;10.00;66.90
83500;DHT22;73433;50.908;13.746;2023-12-29T14:00:27;10.00;66.60
83500;DHT22;73433;50.908;13.746;2023-12-29T14:03:01;10.00;66.70
83500;DHT22;73433;50.908;13.746;2023-12-29T14:05:36;10.00;66.50
83500;DHT22;73433;50.908;13.746;2023-12-29T14:08:10;10.10;66.60
83500;DHT22;73433;50.908;13.746;2023-12-29T14:10:44;10.10;67.50
83500;DHT22;73433;50.908;13.746;2023-12-29T14:13:13;10.10;66.70
83500;DHT22;73433;50.908;13.746;2023-12-29T14:15:45;10.10;66.70
83500;DHT22;73433;50.908;13.746;2023-12-29T14:21:28;10.00;66.70
83500;DHT22;73433;50.908;13.746;2023-12-29T14:24:15;10.00;66.60
83500;DHT22;73433;50.908;13.746;2023-12-29T14:29:20;10.10;66.50
83500;DHT22;73433;50.908;13.746;2023-12-29T14:31:48;10.10;66.40
83500;DHT22;73433;50.908;13.746;2023-12-29T14:34:18;10.10;66.50
83500;DHT22;73433;50.908;13.746;2023-12-29T14:36:46;10.10;66.30
83500;DHT22;73433;50.908;13.746;2023-12-29T14:39:14;10.10;66.30
83500;DHT22;73433;50.908;13.746;2023-12-29T14:41:44;10.10;66.30
83500;DHT22;73433;50.908;13.746;2023-12-29T14:44:13;10.10;66.20
83500;DHT22;73433;50.908;13.746;2023-12-29T14:46:40;10.10;66.30
83500;DHT22;73433;50.908;13.746;2023-12-29T14:49:07;10.10;66.20
83500;DHT22;73433;50.908;13.746;2023-12-29T14:51:35;10.10;66.10
83500;DHT22;73433;50.908;13.746;2023-12-29T14:54:02;10.10;66.10
83500;DHT22;73433;50.908;13.746;2023-12-29T14:56:31;10.20;66.00
83500;DHT22;73433;50.908;13.746;2023-12-29T14:58:58;10.20;66.00
83500;DHT22;73433;50.908;13.746;2023-12-29T15:01:26;10.20;65.90
83500;DHT22;73433;50.908;13.746;2023-12-29T15:03:54;10.20;66.00
83500;DHT22;73433;50.908;13.746;2023-12-29T15:06:22;10.20;66.10
83500;DHT22;73433;50.908;13.746;2023-12-29T15:08:50;10.20;66.10
83500;DHT22;73433;50.908;13.746;2023-12-29T15:11:17;10.20;66.20
83500;DHT22;73433;50.908;13.746;2023-12-29T15:13:46;10.20;66.20
83500;DHT22;73433;50.908;13.746;2023-12-29T15:16:14;10.20;66.30
83500;DHT22;73433;50.908;13.746;2023-12-29T15:18:41;10.20;66.40
83500;DHT22;73433;50.908;13.746;2023-12-29T15:21:08;10.20;66.60
83500;DHT22;73433;50.908;13.746;2023-12-29T15:23:35;10.10;66.60
83500;DHT22;73433;50.908;13.746;2023-12-29T15:26:03;10.10;66.60
83500;DHT22;73433;50.908;13.746;2023-12-29T15:28:31;10.10;66.80
83500;DHT22;73433;50.908;13.746;2023-12-29T15:30:58;10.10;66.90
83500;DHT22;73433;50.908;13.746;2023-12-29T15:33:26;10.10;66.70
83500;DHT22;73433;50.908;13.746;2023-12-29T15:39:19;10.10;66.90
83500;DHT22;73433;50.908;13.746;2023-12-29T15:41:47;10.10;67.10
83500;DHT22;73433;50.908;13.746;2023-12-29T15:44:14;10.10;67.30
83500;DHT22;73433;50.908;13.746;2023-12-29T15:46:41;10.10;67.30
83500;DHT22;73433;50.908;13.746;2023-12-29T15:49:08;10.00;67.30
83500;DHT22;73433;50.908;13.746;2023-12-29T15:51:36;10.00;67.30
83500;DHT22;73433;50.908;13.746;2023-12-29T15:54:03;10.00;67.40
83500;DHT22;73433;50.908;13.746;2023-12-29T15:56:31;10.00;67.50
83500;DHT22;73433;50.908;13.746;2023-12-29T15:58:58;10.00;67.70
83500;DHT22;73433;50.908;13.746;2023-12-29T16:01:25;10.00;67.70
83500;DHT22;73433;50.908;13.746;2023-12-29T16:03:56;10.00;67.70
83500;DHT22;73433;50.908;13.746;2023-12-29T16:06:26;10.00;67.80